sensor_id;sensor_type;location;lat;lon;timestamp;temperature;humidity
37642;DHT22;23486;51.956;5.888;2024-01-15T00:02:17;1.60;99.90
37642;DHT22;23486;51.956;5.888;2024-01-15T00:04:43;1.60;99.90
37642;DHT22;23486;51.956;5.888;2024-01-15T00:07:09;1.60;99.90
37642;DHT22;23486;51.956;5.888;2024-01-15T00:09:35;1.50;99.90
37642;DHT22;23486;51.956;5.888;2024-01-15T00:12:01;1.50;99.90
37642;DHT22;23486;51.956;5.888;2024-01-15T00:14:27;1.60;99.90
37642;DHT22;23486;51.956;5.888;2024-01-15T00:16:53;1.60;99.90
37642;DHT22;23486;51.956;5.888;2024-01-15T00:19:21;1.60;99.90
37642;DHT22;23486;51.956;5.888;2024-01-15T00:21:47;1.60;99.90
37642;DHT22;23486;51.956;5.888;2024-01-15T00:24:13;1.50;99.90
37642;DHT22;23486;51.956;5.888;2024-01-15T00:26:39;1.50;99.90
37642;DHT22;23486;51.956;5.888;2024-01-15T00:29:07;1.50;99.90
37642;DHT22;23486;51.956;5.888;2024-01-15T00:31:33;1.40;99.90
37642;DHT22;23486;51.956;5.888;2024-01-15T00:33:58;1.40;99.90
37642;DHT22;23486;51.956;5.888;2024-01-15T00:36:24;1.40;99.90
37642;DHT22;23486;51.956;5.888;2024-01-15T00:38:49;1.40;99.90
37642;DHT22;23486;51.956;5.888;2024-01-15T00:41:18;1.30;99.90
37642;DHT22;23486;51.956;5.888;2024-01-15T00:43:44;1.30;99.90
37642;DHT22;23486;51.956;5.888;2024-01-15T00:46:10;1.30;99.90
37642;DHT22;23486;51.956;5.888;2024-01-15T00:48:36;1.30;99.90
37642;DHT22;23486;51.956;5.888;2024-01-15T00:51:01;1.30;99.90
37642;DHT22;23486;51.956;5.888;2024-01-15T00:53:27;1.20;99.90
37642;DHT22;23486;51.956;5.888;2024-01-15T00:55:53;1.20;99.90
37642;DHT22;23486;51.956;5.888;2024-01-15T00:58:19;1.20;99.90
37642;DHT22;23486;51.956;5.888;2024-01-15T01:00:44;1.20;99.90
37642;DHT22;23486;51.956;5.888;2024-01-15T01:03:10;1.10;99.90
37642;DHT22;23486;51.956;5.888;2024-01-15T01:05:35;1.10;99.90
37642;DHT22;23486;51.956;5.888;2024-01-15T01:08:01;1.10;99.90
37642;DHT22;23486;51.956;5.888;2024-01-15T01:10:27;1.10;99.90
37642;DHT22;23486;51.956;5.888;2024-01-15T01:12:53;1.10;99.90
37642;DHT22;23486;51.956;5.888;2024-01-15T01:15:18;1.10;99.90
37642;DHT22;23486;51.956;5.888;2024-01-15T01:17:44;1.10;99.90
37642;DHT22;23486;51.956;5.888;2024-01-15T01:20:10;1.10;99.90
37642;DHT22;23486;51.956;5.888;2024-01-15T01:22:39;1.10;99.90
37642;DHT22;23486;51.956;5.888;2024-01-15T01:25:05;1.10;99.90
37642;DHT22;23486;51.956;5.888;2024-01-15T01:27:30;1.10;99.90
37642;DHT22;23486;51.956;5.888;2024-01-15T01:29:56;1.10;99.90
37642;DHT22;23486;51.956;5.888;2024-01-15T01:32:22;1.10;99.90
37642;DHT22;23486;51.956;5.888;2024-01-15T01:34:47;1.00;99.90
37642;DHT22;23486;51.956;5.888;2024-01-15T01:37:13;1.10;99.90
37642;DHT22;23486;51.956;5.888;2024-01-15T01:39:40;1.10;99.90
37642;DHT22;23486;51.956;5.888;2024-01-15T01:42:06;1.00;99.90
37642;DHT22;23486;51.956;5.888;2024-01-15T01:44:32;1.10;99.90
37642;DHT22;23486;51.956;5.888;2024-01-15T01:46:58;1.00;99.90
37642;DHT22;23486;51.956;5.888;2024-01-15T01:49:27;1.00;99.90
37642;DHT22;23486;51.956;5.888;2024-01-15T01:51:56;1.00;99.90
37642;DHT22;23486;51.956;5.888;2024-01-15T01:54:22;1.00;99.90
37642;DHT22;23486;51.956;5.888;2024-01-15T01:56:51;1.00;99.90
37642;DHT22;23486;51.956;5.888;2024-01-15T01:59:17;1.00;99.90
37642;DHT22;23486;51.956;5.888;2024-01-15T02:01:44;1.00;99.90
37642;DHT22;23486;51.956;5.888;2024-01-15T02:04:11;1.00;99.90
37642;DHT22;23486;51.956;5.888;2024-01-15T02:06:36;1.00;99.90
37642;DHT22;23486;51.956;5.888;2024-01-15T02:09:02;0.90;99.90
37642;DHT22;23486;51.956;5.888;2024-01-15T02:11:28;0.90;99.90
37642;DHT22;23486;51.956;5.888;2024-01-15T02:13:54;0.90;99.90
37642;DHT22;23486;51.956;5.888;2024-01-15T02:16:22;0.90;99.90
37642;DHT22;23486;51.956;5.888;2024-01-15T02:18:48;0.90;99.90
37642;DHT22;23486;51.956;5.888;2024-01-15T02:21:13;0.80;99.90
37642;DHT22;23486;51.956;5.888;2024-01-15T02:23:39;0.80;99.90
37642;DHT22;23486;51.956;5.888;2024-01-15T02:26:05;0.90;99.90
37642;DHT22;23486;51.956;5.888;2024-01-15T02:28:31;0.90;99.90
37642;DHT22;23486;51.956;5.888;2024-01-15T02:30:57;0.90;99.90
37642;DHT22;23486;51.956;5.888;2024-01-15T02:33:23;0.90;99.90
37642;DHT22;23486;51.956;5.888;2024-01-15T02:35:49;0.90;99.90
37642;DHT22;23486;51.956;5.888;2024-01-15T02:38:17;0.90;99.90
37642;DHT22;23486;51.956;5.888;2024-01-15T02:40:44;1.00;99.90
37642;DHT22;23486;51.956;5.888;2024-01-15T02:43:10;1.00;99.90
37642;DHT22;23486;51.956;5.888;2024-01-15T02:45:35;1.00;99.90
37642;DHT22;23486;51.956;5.888;2024-01-15T02:48:04;1.00;99.90
37642;DHT22;23486;51.956;5.888;2024-01-15T02:50:30;1.10;99.90
37642;DHT22;23486;51.956;5.888;2024-01-15T02:52:55;1.20;99.90
37642;DHT22;23486;51.956;5.888;2024-01-15T02:55:21;1.30;99.90
37642;DHT22;23486;51.956;5.888;2024-01-15T02:57:46;1.30;99.90
37642;DHT22;23486;51.956;5.888;2024-01-15T03:00:12;1.40;99.90
37642;DHT22;23486;51.956;5.888;2024-01-15T03:02:39;1.40;99.90
37642;DHT22;23486;51.956;5.888;2024-01-15T03:05:06;1.40;99.90
37642;DHT22;23486;51.956;5.888;2024-01-15T03:07:33;1.50;99.90
37642;DHT22;23486;51.956;5.888;2024-01-15T03:09:58;1.40;99.90
37642;DHT22;23486;51.956;5.888;2024-01-15T03:12:24;1.40;99.90
37642;DHT22;23486;51.956;5.888;2024-01-15T03:14:49;1.30;99.90
37642;DHT22;23486;51.956;5.888;2024-01-15T03:17:18;1.30;99.90
37642;DHT22;23486;51.956;5.888;2024-01-15T03:19:47;1.20;99.90
37642;DHT22;23486;51.956;5.888;2024-01-15T03:22:12;1.10;99.90
37642;DHT22;23486;51.956;5.888;2024-01-15T03:24:38;1.10;99.90
37642;DHT22;23486;51.956;5.888;2024-01-15T03:27:03;1.10;99.90
37642;DHT22;23486;51.956;5.888;2024-01-15T03:29:29;1.00;99.90
37642;DHT22;23486;51.956;5.888;2024-01-15T03:31:55;1.00;99.90
37642;DHT22;23486;51.956;5.888;2024-01-15T03:34:20;1.00;99.90
37642;DHT22;23486;51.956;5.888;2024-01-15T03:36:46;1.00;99.90
37642;DHT22;23486;51.956;5.888;2024-01-15T03:39:11;1.00;99.90
37642;DHT22;23486;51.956;5.888;2024-01-15T03:41:37;0.90;99.90
37642;DHT22;23486;51.956;5.888;2024-01-15T03:44:03;0.90;99.90
37642;DHT22;23486;51.956;5.888;2024-01-15T03:46:28;0.90;99.90
37642;DHT22;23486;51.956;5.888;2024-01-15T03:48:54;0.90;99.90
37642;DHT22;23486;51.956;5.888;2024-01-15T03:51:19;0.90;99.90
37642;DHT22;23486;51.956;5.888;2024-01-15T03:53:45;0.90;99.90
37642;DHT22;23486;51.956;5.888;2024-01-15T03:56:14;0.90;99.90
37642;DHT22;23486;51.956;5.888;2024-01-15T03:58:39;0.90;99.90
37642;DHT22;23486;51.956;5.888;2024-01-15T04:01:10;0.90;99.90
37642;DHT22;23486;51.956;5.888;2024-01-15T04:03:36;0.90;99.90
37642;DHT22;23486;51.956;5.888;2024-01-15T04:06:06;0.90;99.90
37642;DHT22;23486;51.956;5.888;2024-01-15T04:08:31;0.90;99.90
37642;DHT22;23486;51.956;5.888;2024-01-15T04:10:57;1.00;99.90
37642;DHT22;23486;51.956;5.888;2024-01-15T04:13:22;1.00;99.90
37642;DHT22;23486;51.956;5.888;2024-01-15T04:15:51;1.00;99.90
37642;DHT22;23486;51.956;5.888;2024-01-15T04:18:16;1.00;99.90
37642;DHT22;23486;51.956;5.888;2024-01-15T04:20:43;1.00;99.90
37642;DHT22;23486;51.956;5.888;2024-01-15T04:23:09;1.00;99.90
37642;DHT22;23486;51.956;5.888;2024-01-15T04:25:34;1.00;99.90
37642;DHT22;23486;51.956;5.888;2024-01-15T04:28:00;1.00;99.90
37642;DHT22;23486;51.956;5.888;2024-01-15T04:30:26;1.00;99.90
37642;DHT22;23486;51.956;5.888;2024-01-15T04:32:51;1.00;99.90
37642;DHT22;23486;51.956;5.888;2024-01-15T04:35:17;1.00;99.90
37642;DHT22;23486;51.956;5.888;2024-01-15T04:37:43;1.00;99.90
37642;DHT22;23486;51.956;5.888;2024-01-15T04:40:09;1.10;99.90
37642;DHT22;23486;51.956;5.888;2024-01-15T04:42:34;1.10;99.90
37642;DHT22;23486;51.956;5.888;2024-01-15T04:45:00;1.20;99.90
37642;DHT22;23486;51.956;5.888;2024-01-15T04:47:26;1.20;99.90
37642;DHT22;23486;51.956;5.888;2024-01-15T04:49:51;1.10;99.90
37642;DHT22;23486;51.956;5.888;2024-01-15T04:52:17;1.10;99.90
37642;DHT22;23486;51.956;5.888;2024-01-15T04:54:42;1.00;99.90
37642;DHT22;23486;51.956;5.888;2024-01-15T04:57:08;1.00;99.90
37642;DHT22;23486;51.956;5.888;2024-01-15T04:59:33;0.90;99.90
37642;DHT22;23486;51.956;5.888;2024-01-15T05:01:59;0.90;99.90
37642;DHT22;23486;51.956;5.888;2024-01-15T05:04:24;0.90;99.90
37642;DHT22;23486;51.956;5.888;2024-01-15T05:06:50;0.80;99.90
37642;DHT22;23486;51.956;5.888;2024-01-15T05:09:16;0.80;99.90
37642;DHT22;23486;51.956;5.888;2024-01-15T05:11:43;0.80;99.90
37642;DHT22;23486;51.956;5.888;2024-01-15T05:14:09;0.80;99.90
37642;DHT22;23486;51.956;5.888;2024-01-15T05:16:34;0.80;99.90
37642;DHT22;23486;51.956;5.888;2024-01-15T05:19:00;0.80;99.90
37642;DHT22;23486;51.956;5.888;2024-01-15T05:21:25;0.80;99.90
37642;DHT22;23486;51.956;5.888;2024-01-15T05:23:51;0.80;99.90
37642;DHT22;23486;51.956;5.888;2024-01-15T05:26:16;0.80;99.90
37642;DHT22;23486;51.956;5.888;2024-01-15T05:28:43;0.90;99.90
37642;DHT22;23486;51.956;5.888;2024-01-15T05:31:09;0.90;99.90
37642;DHT22;23486;51.956;5.888;2024-01-15T05:33:34;0.90;99.90
37642;DHT22;23486;51.956;5.888;2024-01-15T05:36:00;0.90;99.90
37642;DHT22;23486;51.956;5.888;2024-01-15T05:38:26;0.90;99.90
37642;DHT22;23486;51.956;5.888;2024-01-15T05:40:51;1.00;99.90
37642;DHT22;23486;51.956;5.888;2024-01-15T05:43:17;1.00;99.90
37642;DHT22;23486;51.956;5.888;2024-01-15T05:45:43;1.00;99.90
37642;DHT22;23486;51.956;5.888;2024-01-15T05:48:10;1.10;99.90
37642;DHT22;23486;51.956;5.888;2024-01-15T05:50:36;1.10;99.90
37642;DHT22;23486;51.956;5.888;2024-01-15T05:53:01;1.20;99.90
37642;DHT22;23486;51.956;5.888;2024-01-15T05:55:28;1.20;99.90
37642;DHT22;23486;51.956;5.888;2024-01-15T05:57:53;1.20;99.90
37642;DHT22;23486;51.956;5.888;2024-01-15T06:00:19;1.20;99.90
37642;DHT22;23486;51.956;5.888;2024-01-15T06:02:45;1.20;99.90
37642;DHT22;23486;51.956;5.888;2024-01-15T06:05:10;1.20;99.90
37642;DHT22;23486;51.956;5.888;2024-01-15T06:07:36;1.30;99.90
37642;DHT22;23486;51.956;5.888;2024-01-15T06:10:05;1.30;99.90
37642;DHT22;23486;51.956;5.888;2024-01-15T06:12:30;1.30;99.90
37642;DHT22;23486;51.956;5.888;2024-01-15T06:14:57;1.30;99.90
37642;DHT22;23486;51.956;5.888;2024-01-15T06:17:23;1.30;99.90
37642;DHT22;23486;51.956;5.888;2024-01-15T06:19:48;1.40;99.90
37642;DHT22;23486;51.956;5.888;2024-01-15T06:22:14;1.40;99.90
37642;DHT22;23486;51.956;5.888;2024-01-15T06:24:42;1.40;99.90
37642;DHT22;23486;51.956;5.888;2024-01-15T06:27:08;1.40;99.90
37642;DHT22;23486;51.956;5.888;2024-01-15T06:29:33;1.40;99.90
37642;DHT22;23486;51.956;5.888;2024-01-15T06:32:02;1.40;99.90
37642;DHT22;23486;51.956;5.888;2024-01-15T06:34:28;1.50;99.90
37642;DHT22;23486;51.956;5.888;2024-01-15T06:36:54;1.50;99.90
37642;DHT22;23486;51.956;5.888;2024-01-15T06:39:19;1.50;99.90
37642;DHT22;23486;51.956;5.888;2024-01-15T06:41:45;1.50;99.90
37642;DHT22;23486;51.956;5.888;2024-01-15T06:44:11;1.50;99.90
37642;DHT22;23486;51.956;5.888;2024-01-15T06:46:37;1.50;99.90
37642;DHT22;23486;51.956;5.888;2024-01-15T06:49:06;1.50;99.90
37642;DHT22;23486;51.956;5.888;2024-01-15T06:51:35;1.40;99.90
37642;DHT22;23486;51.956;5.888;2024-01-15T06:54:01;1.40;99.90
37642;DHT22;23486;51.956;5.888;2024-01-15T06:56:26;1.30;99.90
37642;DHT22;23486;51.956;5.888;2024-01-15T06:58:52;1.30;99.90
37642;DHT22;23486;51.956;5.888;2024-01-15T07:01:17;1.20;99.90
37642;DHT22;23486;51.956;5.888;2024-01-15T07:03:43;1.20;99.90
37642;DHT22;23486;51.956;5.888;2024-01-15T07:06:08;1.10;99.90
37642;DHT22;23486;51.956;5.888;2024-01-15T07:08:34;1.10;99.90
37642;DHT22;23486;51.956;5.888;2024-01-15T07:11:03;1.00;99.90
37642;DHT22;23486;51.956;5.888;2024-01-15T07:13:28;1.10;99.90
37642;DHT22;23486;51.956;5.888;2024-01-15T07:15:54;1.10;99.90
37642;DHT22;23486;51.956;5.888;2024-01-15T07:18:19;1.10;99.90
37642;DHT22;23486;51.956;5.888;2024-01-15T07:20:45;1.10;99.90
37642;DHT22;23486;51.956;5.888;2024-01-15T07:23:10;1.10;99.90
37642;DHT22;23486;51.956;5.888;2024-01-15T07:25:36;1.10;99.90
37642;DHT22;23486;51.956;5.888;2024-01-15T07:28:02;1.10;99.90
37642;DHT22;23486;51.956;5.888;2024-01-15T07:30:29;1.10;99.90
37642;DHT22;23486;51.956;5.888;2024-01-15T07:32:54;1.10;99.90
37642;DHT22;23486;51.956;5.888;2024-01-15T07:35:21;1.10;99.90
37642;DHT22;23486;51.956;5.888;2024-01-15T07:37:46;1.10;99.90
37642;DHT22;23486;51.956;5.888;2024-01-15T07:40:15;1.10;99.90
37642;DHT22;23486;51.956;5.888;2024-01-15T07:42:40;1.10;99.90
37642;DHT22;23486;51.956;5.888;2024-01-15T07:45:08;1.10;99.90
37642;DHT22;23486;51.956;5.888;2024-01-15T07:47:34;1.10;99.90
37642;DHT22;23486;51.956;5.888;2024-01-15T07:49:59;1.20;99.90
37642;DHT22;23486;51.956;5.888;2024-01-15T07:52:25;1.20;99.90
37642;DHT22;23486;51.956;5.888;2024-01-15T07:54:50;1.20;99.90
37642;DHT22;23486;51.956;5.888;2024-01-15T07:57:16;1.20;99.90
37642;DHT22;23486;51.956;5.888;2024-01-15T07:59:41;1.20;99.90
37642;DHT22;23486;51.956;5.888;2024-01-15T08:02:07;1.20;99.90
37642;DHT22;23486;51.956;5.888;2024-01-15T08:04:33;1.20;99.90
37642;DHT22;23486;51.956;5.888;2024-01-15T08:06:58;1.20;99.90
37642;DHT22;23486;51.956;5.888;2024-01-15T08:09:24;1.20;99.90
37642;DHT22;23486;51.956;5.888;2024-01-15T08:11:52;1.10;99.90
37642;DHT22;23486;51.956;5.888;2024-01-15T08:14:18;1.10;99.90
37642;DHT22;23486;51.956;5.888;2024-01-15T08:16:44;1.10;99.90
37642;DHT22;23486;51.956;5.888;2024-01-15T08:19:10;1.20;99.90
37642;DHT22;23486;51.956;5.888;2024-01-15T08:21:35;1.10;99.90
37642;DHT22;23486;51.956;5.888;2024-01-15T08:24:02;1.20;99.90
37642;DHT22;23486;51.956;5.888;2024-01-15T08:26:31;1.20;99.90
37642;DHT22;23486;51.956;5.888;2024-01-15T08:28:58;1.10;99.90
37642;DHT22;23486;51.956;5.888;2024-01-15T08:31:23;1.20;99.90
37642;DHT22;23486;51.956;5.888;2024-01-15T08:33:49;1.20;99.90
37642;DHT22;23486;51.956;5.888;2024-01-15T08:36:15;1.20;99.90
37642;DHT22;23486;51.956;5.888;2024-01-15T08:38:40;1.30;99.90
37642;DHT22;23486;51.956;5.888;2024-01-15T08:41:06;1.30;99.90
37642;DHT22;23486;51.956;5.888;2024-01-15T08:43:34;1.20;99.90
37642;DHT22;23486;51.956;5.888;2024-01-15T08:45:59;1.30;99.90
37642;DHT22;23486;51.956;5.888;2024-01-15T08:48:28;1.30;99.90
37642;DHT22;23486;51.956;5.888;2024-01-15T08:50:54;1.20;99.90
37642;DHT22;23486;51.956;5.888;2024-01-15T08:53:20;1.20;99.90
37642;DHT22;23486;51.956;5.888;2024-01-15T08:55:46;1.20;99.90
37642;DHT22;23486;51.956;5.888;2024-01-15T08:58:11;1.20;99.90
37642;DHT22;23486;51.956;5.888;2024-01-15T09:00:37;1.20;99.90
37642;DHT22;23486;51.956;5.888;2024-01-15T09:03:03;1.20;99.90
37642;DHT22;23486;51.956;5.888;2024-01-15T09:05:28;1.30;99.90
37642;DHT22;23486;51.956;5.888;2024-01-15T09:07:54;1.30;99.90
37642;DHT22;23486;51.956;5.888;2024-01-15T09:10:20;1.30;99.90
37642;DHT22;23486;51.956;5.888;2024-01-15T09:12:46;1.30;99.90
37642;DHT22;23486;51.956;5.888;2024-01-15T09:15:12;1.30;99.90
37642;DHT22;23486;51.956;5.888;2024-01-15T09:17:38;1.30;99.90
37642;DHT22;23486;51.956;5.888;2024-01-15T09:20:04;1.30;99.90
37642;DHT22;23486;51.956;5.888;2024-01-15T09:22:31;1.30;99.90
37642;DHT22;23486;51.956;5.888;2024-01-15T09:24:57;1.30;99.90
37642;DHT22;23486;51.956;5.888;2024-01-15T09:27:22;1.40;99.90
37642;DHT22;23486;51.956;5.888;2024-01-15T09:29:48;1.40;99.90
37642;DHT22;23486;51.956;5.888;2024-01-15T09:32:13;1.50;99.90
37642;DHT22;23486;51.956;5.888;2024-01-15T09:34:39;1.50;99.90
37642;DHT22;23486;51.956;5.888;2024-01-15T09:37:05;1.50;99.90
37642;DHT22;23486;51.956;5.888;2024-01-15T09:39:31;1.50;99.90
37642;DHT22;23486;51.956;5.888;2024-01-15T09:41:57;1.50;99.90
37642;DHT22;23486;51.956;5.888;2024-01-15T09:44:23;1.50;99.90
37642;DHT22;23486;51.956;5.888;2024-01-15T09:46:49;1.60;99.90
37642;DHT22;23486;51.956;5.888;2024-01-15T09:49:16;1.70;99.90
37642;DHT22;23486;51.956;5.888;2024-01-15T09:51:42;1.90;99.90
37642;DHT22;23486;51.956;5.888;2024-01-15T09:54:08;1.90;99.90
37642;DHT22;23486;51.956;5.888;2024-01-15T09:56:34;1.90;99.90
37642;DHT22;23486;51.956;5.888;2024-01-15T09:59:01;1.90;99.90
37642;DHT22;23486;51.956;5.888;2024-01-15T10:01:27;1.70;99.90
37642;DHT22;23486;51.956;5.888;2024-01-15T10:03:54;1.70;99.90
37642;DHT22;23486;51.956;5.888;2024-01-15T10:06:21;1.60;99.90
37642;DHT22;23486;51.956;5.888;2024-01-15T10:08:48;1.50;99.90
37642;DHT22;23486;51.956;5.888;2024-01-15T10:11:14;1.50;99.90
37642;DHT22;23486;51.956;5.888;2024-01-15T10:13:40;1.50;99.90
37642;DHT22;23486;51.956;5.888;2024-01-15T10:16:06;1.40;99.90
37642;DHT22;23486;51.956;5.888;2024-01-15T10:18:32;1.50;99.90
37642;DHT22;23486;51.956;5.888;2024-01-15T10:20:58;1.50;99.90
37642;DHT22;23486;51.956;5.888;2024-01-15T10:23:24;1.60;99.90
37642;DHT22;23486;51.956;5.888;2024-01-15T10:25:50;1.60;99.90
37642;DHT22;23486;51.956;5.888;2024-01-15T10:28:19;1.60;99.90
37642;DHT22;23486;51.956;5.888;2024-01-15T10:30:45;1.70;99.90
37642;DHT22;23486;51.956;5.888;2024-01-15T10:33:10;1.90;99.90
37642;DHT22;23486;51.956;5.888;2024-01-15T10:35:37;2.00;99.90
37642;DHT22;23486;51.956;5.888;2024-01-15T10:38:03;2.10;99.90
37642;DHT22;23486;51.956;5.888;2024-01-15T10:40:31;2.10;99.90
37642;DHT22;23486;51.956;5.888;2024-01-15T10:42:57;2.10;99.90
37642;DHT22;23486;51.956;5.888;2024-01-15T10:45:23;2.20;99.90
37642;DHT22;23486;51.956;5.888;2024-01-15T10:47:49;2.30;99.90
37642;DHT22;23486;51.956;5.888;2024-01-15T10:50:15;2.40;99.90
37642;DHT22;23486;51.956;5.888;2024-01-15T10:52:42;2.50;99.90
37642;DHT22;23486;51.956;5.888;2024-01-15T10:55:09;2.60;99.90
37642;DHT22;23486;51.956;5.888;2024-01-15T10:57:41;2.60;99.90
37642;DHT22;23486;51.956;5.888;2024-01-15T11:00:10;2.70;99.90
37642;DHT22;23486;51.956;5.888;2024-01-15T11:02:40;2.70;99.90
37642;DHT22;23486;51.956;5.888;2024-01-15T11:05:05;2.70;99.90
37642;DHT22;23486;51.956;5.888;2024-01-15T11:07:31;2.50;99.90
37642;DHT22;23486;51.956;5.888;2024-01-15T11:09:57;2.40;99.90
37642;DHT22;23486;51.956;5.888;2024-01-15T11:12:26;2.30;99.90
37642;DHT22;23486;51.956;5.888;2024-01-15T11:14:52;2.20;99.90
37642;DHT22;23486;51.956;5.888;2024-01-15T11:17:20;2.10;99.90
37642;DHT22;23486;51.956;5.888;2024-01-15T11:19:49;2.00;99.90
37642;DHT22;23486;51.956;5.888;2024-01-15T11:24:56;1.90;99.90
37642;DHT22;23486;51.956;5.888;2024-01-15T11:27:45;1.90;99.90
37642;DHT22;23486;51.956;5.888;2024-01-15T11:30:13;2.00;99.90
37642;DHT22;23486;51.956;5.888;2024-01-15T11:32:40;2.20;99.90
37642;DHT22;23486;51.956;5.888;2024-01-15T11:35:11;2.20;99.90
37642;DHT22;23486;51.956;5.888;2024-01-15T11:40:37;2.30;99.90
37642;DHT22;23486;51.956;5.888;2024-01-15T11:43:04;2.30;99.90
37642;DHT22;23486;51.956;5.888;2024-01-15T11:45:30;2.20;99.90
37642;DHT22;23486;51.956;5.888;2024-01-15T11:48:09;2.20;99.90
37642;DHT22;23486;51.956;5.888;2024-01-15T11:50:40;2.20;99.90
37642;DHT22;23486;51.956;5.888;2024-01-15T11:53:16;2.20;99.90
37642;DHT22;23486;51.956;5.888;2024-01-15T11:55:44;2.30;99.90
37642;DHT22;23486;51.956;5.888;2024-01-15T11:58:11;2.30;99.90
37642;DHT22;23486;51.956;5.888;2024-01-15T12:00:47;2.30;99.90
37642;DHT22;23486;51.956;5.888;2024-01-15T12:03:14;2.20;99.90
37642;DHT22;23486;51.956;5.888;2024-01-15T12:05:40;2.20;99.90
37642;DHT22;23486;51.956;5.888;2024-01-15T12:08:09;2.20;99.90
37642;DHT22;23486;51.956;5.888;2024-01-15T12:10:38;2.30;99.90
37642;DHT22;23486;51.956;5.888;2024-01-15T12:13:13;2.30;99.90
37642;DHT22;23486;51.956;5.888;2024-01-15T12:15:40;2.30;99.90
37642;DHT22;23486;51.956;5.888;2024-01-15T12:18:10;2.40;99.90
37642;DHT22;23486;51.956;5.888;2024-01-15T12:20:36;2.40;99.90
37642;DHT22;23486;51.956;5.888;2024-01-15T12:23:02;2.50;99.90
37642;DHT22;23486;51.956;5.888;2024-01-15T12:25:35;2.50;99.90
37642;DHT22;23486;51.956;5.888;2024-01-15T12:28:01;2.60;99.90
37642;DHT22;23486;51.956;5.888;2024-01-15T12:30:28;2.70;99.90
37642;DHT22;23486;51.956;5.888;2024-01-15T12:32:54;2.90;99.90
37642;DHT22;23486;51.956;5.888;2024-01-15T12:35:20;3.00;99.90
37642;DHT22;23486;51.956;5.888;2024-01-15T12:37:47;3.10;99.90
37642;DHT22;23486;51.956;5.888;2024-01-15T12:40:13;3.20;99.90
37642;DHT22;23486;51.956;5.888;2024-01-15T12:42:43;3.30;99.90
37642;DHT22;23486;51.956;5.888;2024-01-15T12:45:09;3.30;99.90
37642;DHT22;23486;51.956;5.888;2024-01-15T12:47:36;3.30;99.90
37642;DHT22;23486;51.956;5.888;2024-01-15T12:50:02;3.10;99.90
37642;DHT22;23486;51.956;5.888;2024-01-15T12:52:31;3.10;99.90
37642;DHT22;23486;51.956;5.888;2024-01-15T12:55:00;3.00;99.90
37642;DHT22;23486;51.956;5.888;2024-01-15T12:57:26;2.90;99.90
37642;DHT22;23486;51.956;5.888;2024-01-15T12:59:54;2.80;99.90
37642;DHT22;23486;51.956;5.888;2024-01-15T13:02:19;2.80;99.90
37642;DHT22;23486;51.956;5.888;2024-01-15T13:04:45;2.70;99.90
37642;DHT22;23486;51.956;5.888;2024-01-15T13:07:10;2.70;99.90
37642;DHT22;23486;51.956;5.888;2024-01-15T13:09:36;2.70;99.90
37642;DHT22;23486;51.956;5.888;2024-01-15T13:12:05;2.70;99.90
37642;DHT22;23486;51.956;5.888;2024-01-15T13:14:31;2.80;99.90
37642;DHT22;23486;51.956;5.888;2024-01-15T13:16:57;2.90;99.90
37642;DHT22;23486;51.956;5.888;2024-01-15T13:19:24;3.10;99.90
37642;DHT22;23486;51.956;5.888;2024-01-15T13:21:49;3.20;99.90
37642;DHT22;23486;51.956;5.888;2024-01-15T13:24:17;3.10;99.90
37642;DHT22;23486;51.956;5.888;2024-01-15T13:26:42;3.00;99.90
37642;DHT22;23486;51.956;5.888;2024-01-15T13:29:08;2.90;99.90
37642;DHT22;23486;51.956;5.888;2024-01-15T13:31:33;2.80;99.90
37642;DHT22;23486;51.956;5.888;2024-01-15T13:33:59;2.70;99.90
37642;DHT22;23486;51.956;5.888;2024-01-15T13:36:26;2.70;99.90
37642;DHT22;23486;51.956;5.888;2024-01-15T13:38:52;2.70;99.90
37642;DHT22;23486;51.956;5.888;2024-01-15T13:41:19;2.70;99.90
37642;DHT22;23486;51.956;5.888;2024-01-15T13:43:49;2.60;99.90
37642;DHT22;23486;51.956;5.888;2024-01-15T13:46:16;2.60;99.90
37642;DHT22;23486;51.956;5.888;2024-01-15T13:48:42;2.50;99.90
37642;DHT22;23486;51.956;5.888;2024-01-15T13:51:08;2.40;99.90
37642;DHT22;23486;51.956;5.888;2024-01-15T13:53:34;2.40;99.90
37642;DHT22;23486;51.956;5.888;2024-01-15T13:55:59;2.30;99.90
37642;DHT22;23486;51.956;5.888;2024-01-15T13:58:27;2.20;99.90
37642;DHT22;23486;51.956;5.888;2024-01-15T14:00:53;2.20;99.90
37642;DHT22;23486;51.956;5.888;2024-01-15T14:03:18;2.10;99.90
37642;DHT22;23486;51.956;5.888;2024-01-15T14:05:44;2.10;99.90
37642;DHT22;23486;51.956;5.888;2024-01-15T14:08:10;2.10;99.90
37642;DHT22;23486;51.956;5.888;2024-01-15T14:10:42;2.10;99.90
37642;DHT22;23486;51.956;5.888;2024-01-15T14:13:07;2.20;99.90
37642;DHT22;23486;51.956;5.888;2024-01-15T14:15:34;2.20;99.90
37642;DHT22;23486;51.956;5.888;2024-01-15T14:17:59;2.20;99.90
37642;DHT22;23486;51.956;5.888;2024-01-15T14:20:26;2.30;99.90
37642;DHT22;23486;51.956;5.888;2024-01-15T14:22:53;2.40;99.90
37642;DHT22;23486;51.956;5.888;2024-01-15T14:25:18;2.40;99.90
37642;DHT22;23486;51.956;5.888;2024-01-15T14:27:44;2.50;99.90
37642;DHT22;23486;51.956;5.888;2024-01-15T14:30:10;2.50;99.90
37642;DHT22;23486;51.956;5.888;2024-01-15T14:32:38;2.60;99.90
37642;DHT22;23486;51.956;5.888;2024-01-15T14:35:05;2.60;99.90
37642;DHT22;23486;51.956;5.888;2024-01-15T14:37:31;2.60;99.90
37642;DHT22;23486;51.956;5.888;2024-01-15T14:39:56;2.40;99.90
37642;DHT22;23486;51.956;5.888;2024-01-15T14:42:22;2.40;99.90
37642;DHT22;23486;51.956;5.888;2024-01-15T14:44:48;2.30;99.90
37642;DHT22;23486;51.956;5.888;2024-01-15T14:47:13;2.20;99.90
37642;DHT22;23486;51.956;5.888;2024-01-15T14:49:39;2.20;99.90
37642;DHT22;23486;51.956;5.888;2024-01-15T14:52:05;2.20;99.90
37642;DHT22;23486;51.956;5.888;2024-01-15T14:54:31;2.20;99.90
37642;DHT22;23486;51.956;5.888;2024-01-15T14:56:57;2.20;99.90
37642;DHT22;23486;51.956;5.888;2024-01-15T14:59:22;2.10;99.90
37642;DHT22;23486;51.956;5.888;2024-01-15T15:01:48;2.10;99.90
37642;DHT22;23486;51.956;5.888;2024-01-15T15:04:14;2.10;99.90
37642;DHT22;23486;51.956;5.888;2024-01-15T15:06:39;2.20;99.90
37642;DHT22;23486;51.956;5.888;2024-01-15T15:09:08;2.30;99.90
37642;DHT22;23486;51.956;5.888;2024-01-15T15:11:37;2.30;99.90
37642;DHT22;23486;51.956;5.888;2024-01-15T15:14:03;2.30;99.90
37642;DHT22;23486;51.956;5.888;2024-01-15T15:16:29;2.30;99.90
37642;DHT22;23486;51.956;5.888;2024-01-15T15:18:55;2.30;99.90
37642;DHT22;23486;51.956;5.888;2024-01-15T15:21:21;2.20;99.90
37642;DHT22;23486;51.956;5.888;2024-01-15T15:23:47;2.10;99.90
37642;DHT22;23486;51.956;5.888;2024-01-15T15:26:15;2.00;99.90
37642;DHT22;23486;51.956;5.888;2024-01-15T15:28:41;1.90;99.90
37642;DHT22;23486;51.956;5.888;2024-01-15T15:31:06;1.90;99.90
37642;DHT22;23486;51.956;5.888;2024-01-15T15:33:37;1.90;99.90
37642;DHT22;23486;51.956;5.888;2024-01-15T15:36:03;1.90;99.90
37642;DHT22;23486;51.956;5.888;2024-01-15T15:38:34;1.90;99.90
37642;DHT22;23486;51.956;5.888;2024-01-15T15:40:59;1.90;99.90
37642;DHT22;23486;51.956;5.888;2024-01-15T15:43:26;1.90;99.90
37642;DHT22;23486;51.956;5.888;2024-01-15T15:45:51;1.90;99.90